This is the latest recevied weather packets stored in our database for station/object OE6ATD-13. If no packets are shown the sender has not sent any weather packets the latest 1 day(s).
| Time | Temp. | Humidity | Pressure | Rain* | Wind** | Luminosity | Snow |
|---|---|---|---|---|---|---|---|
| 1778048726 | 20° C | 51% | 1009.1 hPa | 0 mm | 0 m/s | 364 W/m² | - |
| 1778048121 | 20° C | 53% | 1009.1 hPa | 0 mm | 0 m/s | 333 W/m² | - |
| 1778046928 | 19.44° C | 56% | 1008.9 hPa | 0 mm | 0 m/s | 272 W/m² | - |
| 1778045720 | 17.22° C | 63% | 1009 hPa | 0 mm | 0.45 m/s, 207° | 207 W/m² | - |
| 1778044527 | 16.67° C | 70% | 1009.1 hPa | 0 mm | 0 m/s | 145 W/m² | - |
| 1778040922 | 11.67° C | 82% | 1008.7 hPa | 0 mm | 0 m/s | 16 W/m² | - |
| 1778036125 | 14.44° C | 70% | 1008.7 hPa | 0 mm | 0 m/s | 0 W/m² | - |
| 1778034327 | 15° C | 70% | 1008.8 hPa | 0 mm | 0 m/s | 0 W/m² | - |
| 1778033723 | 15° C | 69% | 1008.6 hPa | 0 mm | 0 m/s | 0 W/m² | - |
| 1778033119 | 15° C | 69% | 1008.5 hPa | 0 mm | 0 m/s | 0 W/m² | - |
| 1778032529 | 15° C | 69% | 1008.6 hPa | 0 mm | 0 m/s | 0 W/m² | - |
| 1778031925 | 15° C | 69% | 1008.4 hPa | 0 mm | 0 m/s | 0 W/m² | - |
| 1778030128 | 15.56° C | 67% | 1008.3 hPa | 0 mm | 0 m/s | 0 W/m² | - |
| 1778029529 | 15.56° C | 68% | 1008.3 hPa | 0 mm | 1.34 m/s, 315° | 0 W/m² | - |
| 1778028925 | 15° C | 69% | 1008.2 hPa | 0 mm | 0 m/s | 0 W/m² | - |
| 1778027717 | 15° C | 68% | 1008.2 hPa | 0 mm | 0 m/s | 0 W/m² | - |
| 1778027128 | 15.56° C | 68% | 1008.3 hPa | 0 mm | 0 m/s | 0 W/m² | - |
| 1778026523 | 15.56° C | 68% | 1008.3 hPa | 0 mm | 0.45 m/s, 229° | 0 W/m² | - |
| 1778025920 | 15° C | 68% | 1008.4 hPa | 0 mm | 0.45 m/s, 315° | 0 W/m² | - |
| 1778025316 | 15.56° C | 68% | 1008.4 hPa | 0 mm | 0 m/s | 0 W/m² | - |
| 1778024726 | 15.56° C | 69% | 1008.4 hPa | 0 mm | 0.45 m/s, 179° | 0 W/m² | - |
| 1778024122 | 15° C | 69% | 1008.6 hPa | 0 mm | 0.45 m/s, 190° | 0 W/m² | - |
| 1778023518 | 15.56° C | 69% | 1008.5 hPa | 0 mm | 1.34 m/s, 175° | 0 W/m² | - |
| 1778022929 | 15.56° C | 69% | 1008.6 hPa | 0 mm | 0.45 m/s, 171° | 0 W/m² | - |
| 1778022325 | 15.56° C | 69% | 1008.6 hPa | 0 mm | 0.89 m/s, 214° | 0 W/m² | - |
* Rain latest hour (hover to see other rain measurements)
** Current wind speed in m/s (hover to see current wind gust speed)